Time;durP1;ratioP1;P1;durP2;ratioP2;P2;SDS_P1;SDS_P2;PMS_P1;PMS_P2;Temp;Humidity;BMP_temperature;BMP_pressure;BME280_temperature;BME280_humidity;BME280_pressure;Samples;Min_cycle;Max_cycle;Signal;HPM_P1;HPM_P2
2023/12/25 00:01:04;;;;;;;16.35;3.17;;;12.10;99.90;;;;;;5027616;28;20059;-61
2023/12/25 00:03:30;;;;;;;16.90;3.42;;;12.10;99.90;;;;;;5045276;28;20036;-61
2023/12/25 00:05:56;;;;;;;21.80;4.50;;;12.10;99.90;;;;;;5048316;28;20040;-59
2023/12/25 00:08:22;;;;;;;16.17;3.75;;;12.10;99.90;;;;;;5049317;28;20507;-60
2023/12/25 00:10:47;;;;;;;17.45;3.38;;;12.20;99.90;;;;;;5044184;28;20085;-60
2023/12/25 00:13:13;;;;;;;20.00;3.78;;;12.20;99.90;;;;;;5046766;28;20028;-60
2023/12/25 00:15:39;;;;;;;20.63;4.65;;;12.20;99.90;;;;;;5045569;28;20160;-60
2023/12/25 00:18:05;;;;;;;16.20;3.42;;;12.20;99.90;;;;;;5047633;28;20041;-60
2023/12/25 00:20:31;;;;;;;16.60;3.72;;;12.20;99.90;;;;;;5038754;28;20123;-61
2023/12/25 00:22:56;;;;;;;22.45;4.07;;;12.20;99.90;;;;;;5026838;28;20098;-61
2023/12/25 00:25:22;;;;;;;23.63;4.10;;;12.20;99.90;;;;;;5046391;28;20541;-60
2023/12/25 00:27:48;;;;;;;20.33;3.47;;;12.10;99.90;;;;;;5048215;28;20300;-60
2023/12/25 00:30:14;;;;;;;14.07;2.92;;;12.10;99.90;;;;;;5045119;28;20337;-59
2023/12/25 00:32:40;;;;;;;16.35;3.25;;;12.10;99.90;;;;;;5046365;28;20037;-60
2023/12/25 00:35:06;;;;;;;18.48;3.85;;;12.10;99.90;;;;;;5042927;28;20048;-61
2023/12/25 00:37:31;;;;;;;14.68;3.10;;;12.10;99.90;;;;;;5043536;28;20047;-60
2023/12/25 00:39:57;;;;;;;19.08;3.58;;;12.20;99.90;;;;;;5022662;28;20053;-61
2023/12/25 00:42:23;;;;;;;15.85;2.85;;;12.20;99.90;;;;;;5047814;28;20417;-60
2023/12/25 00:44:49;;;;;;;12.38;2.33;;;12.20;99.90;;;;;;5036413;28;20048;-60
2023/12/25 00:47:15;;;;;;;15.10;3.78;;;12.20;99.90;;;;;;5032889;28;20386;-60
2023/12/25 00:49:41;;;;;;;13.88;2.53;;;12.10;99.90;;;;;;4999969;28;20127;-61
2023/12/25 00:52:06;;;;;;;17.38;3.05;;;12.10;99.90;;;;;;5031024;28;20041;-60
2023/12/25 00:54:32;;;;;;;16.85;2.83;;;12.10;99.90;;;;;;5057264;28;20036;-60
2023/12/25 00:56:58;;;;;;;18.27;3.08;;;12.10;99.90;;;;;;5018311;28;20557;-61
2023/12/25 00:59:24;;;;;;;10.90;3.33;;;12.10;99.90;;;;;;5035496;28;20556;-60
2023/12/25 01:01:50;;;;;;;15.98;3.13;;;12.00;99.90;;;;;;5034262;28;20063;-60
2023/12/25 01:04:16;;;;;;;13.30;3.13;;;12.00;99.90;;;;;;5035997;28;20041;-60
2023/12/25 01:06:42;;;;;;;12.88;2.90;;;12.00;99.90;;;;;;5038334;28;20048;-61
2023/12/25 01:09:07;;;;;;;14.43;2.65;;;12.00;99.90;;;;;;5034241;28;20064;-60
2023/12/25 01:11:40;;;;;;;14.38;3.10;;;11.90;99.90;;;;;;5036611;28;20135;-61
2023/12/25 01:14:06;;;;;;;12.70;3.13;;;11.90;99.90;;;;;;5026852;28;20052;-60
2023/12/25 01:16:32;;;;;;;11.48;2.92;;;11.90;99.90;;;;;;5044488;28;20155;-61
2023/12/25 01:19:03;;;;;;;16.48;3.03;;;11.90;99.90;;;;;;5033666;28;20166;-61
2023/12/25 01:21:29;;;;;;;15.10;2.38;;;11.80;99.90;;;;;;5016128;28;20067;-61
2023/12/25 01:23:55;;;;;;;16.10;2.65;;;11.80;99.90;;;;;;5043060;28;20496;-60
2023/12/25 01:26:21;;;;;;;13.93;2.83;;;11.80;99.90;;;;;;5027160;28;20071;-60
2023/12/25 01:28:46;;;;;;;16.92;2.70;;;11.80;99.90;;;;;;5040809;28;20071;-60
2023/12/25 01:31:12;;;;;;;14.88;2.70;;;11.80;99.90;;;;;;5053084;28;20028;-61
2023/12/25 01:33:38;;;;;;;16.48;2.80;;;11.80;99.90;;;;;;5017297;28;20041;-59
2023/12/25 01:36:04;;;;;;;17.25;3.50;;;11.70;99.90;;;;;;5054661;28;20047;-60
2023/12/25 01:38:29;;;;;;;15.88;2.92;;;11.70;99.90;;;;;;5041717;28;20119;-60
2023/12/25 01:40:55;;;;;;;19.23;3.80;;;11.70;99.90;;;;;;5038990;28;20509;-61
2023/12/25 01:43:21;;;;;;;14.82;3.22;;;11.60;99.90;;;;;;5038299;28;20053;-61
2023/12/25 01:45:46;;;;;;;15.32;3.13;;;11.60;99.90;;;;;;5052730;28;20040;-61
2023/12/25 01:48:13;;;;;;;15.65;3.95;;;11.50;99.90;;;;;;5038121;28;20452;-61
2023/12/25 01:50:43;;;;;;;14.05;3.28;;;11.50;99.90;;;;;;5018700;28;20028;-61
2023/12/25 01:53:08;;;;;;;23.15;4.65;;;11.50;99.90;;;;;;5054940;28;20052;-60
2023/12/25 01:55:35;;;;;;;11.75;3.10;;;11.50;99.90;;;;;;5034968;28;20040;-60
2023/12/25 01:58:01;;;;;;;13.13;2.70;;;11.40;99.90;;;;;;5038534;28;20044;-61
2023/12/25 02:00:27;;;;;;;16.80;3.05;;;11.40;99.90;;;;;;5032163;28;20093;-60
2023/12/25 02:02:53;;;;;;;13.85;2.40;;;11.40;99.90;;;;;;5052914;28;20052;-61
2023/12/25 02:05:19;;;;;;;14.73;3.30;;;11.40;99.90;;;;;;5036665;28;20029;-61
2023/12/25 02:07:47;;;;;;;13.63;2.72;;;11.40;99.90;;;;;;5040716;28;20049;-59
2023/12/25 02:10:30;;;;;;;12.43;2.42;;;11.40;99.90;;;;;;5020374;28;20056;-60
2023/12/25 02:12:57;;;;;;;14.55;2.70;;;11.40;99.90;;;;;;5058104;28;20049;-59
2023/12/25 02:15:24;;;;;;;12.18;2.45;;;11.40;99.90;;;;;;5039469;28;20878;-61
2023/12/25 02:17:51;;;;;;;19.48;2.50;;;11.40;99.90;;;;;;5038330;28;20489;-60
2023/12/25 02:20:18;;;;;;;14.73;2.88;;;11.40;99.90;;;;;;5025274;28;20123;-60
2023/12/25 02:22:45;;;;;;;14.57;3.30;;;11.40;99.90;;;;;;5035661;28;20652;-61
2023/12/25 02:25:16;;;;;;;20.63;3.92;;;11.40;99.90;;;;;;5038993;28;20679;-60
2023/12/25 02:27:42;;;;;;;22.38;3.47;;;11.40;99.90;;;;;;5041533;28;20131;-61
2023/12/25 02:30:08;;;;;;;20.08;3.97;;;11.30;99.90;;;;;;5020464;28;20702;-59
2023/12/25 02:32:34;;;;;;;20.27;4.10;;;11.40;99.90;;;;;;5008271;28;20501;-60
2023/12/25 02:34:59;;;;;;;14.88;3.13;;;11.40;99.90;;;;;;5038900;28;20098;-60
2023/12/25 02:37:25;;;;;;;19.75;3.33;;;11.40;99.90;;;;;;5023177;28;20249;-61
2023/12/25 02:39:51;;;;;;;17.27;3.55;;;11.40;99.90;;;;;;5034894;28;20040;-60
2023/12/25 02:42:16;;;;;;;17.27;4.00;;;11.40;99.90;;;;;;5021346;28;20041;-61
2023/12/25 02:44:42;;;;;;;16.80;3.33;;;11.40;99.90;;;;;;5034359;28;20360;-60
2023/12/25 02:47:08;;;;;;;17.85;2.97;;;11.40;99.90;;;;;;5056616;28;20463;-60
2023/12/25 02:49:33;;;;;;;20.92;2.97;;;11.40;99.90;;;;;;5038846;28;20032;-60
2023/12/25 02:51:59;;;;;;;11.80;2.45;;;11.50;99.90;;;;;;5037959;28;20045;-60
2023/12/25 02:54:25;;;;;;;11.68;2.70;;;11.40;99.90;;;;;;5040512;28;20630;-60
2023/12/25 02:56:50;;;;;;;13.20;2.60;;;11.50;99.90;;;;;;5025037;28;20051;-60
2023/12/25 02:59:16;;;;;;;20.08;2.90;;;11.50;99.90;;;;;;5019340;28;20512;-60
2023/12/25 03:01:42;;;;;;;18.48;2.67;;;11.40;99.90;;;;;;5036680;28;20068;-61
2023/12/25 03:04:07;;;;;;;16.55;2.58;;;11.40;99.90;;;;;;5020499;28;20404;-60
2023/12/25 03:06:34;;;;;;;18.88;3.08;;;11.40;99.90;;;;;;5030836;28;20048;-59
2023/12/25 03:08:59;;;;;;;16.00;3.38;;;11.40;99.90;;;;;;5038047;28;20059;-60
2023/12/25 03:11:25;;;;;;;16.75;3.58;;;11.40;99.90;;;;;;5020558;28;20044;-60
2023/12/25 03:13:51;;;;;;;12.68;2.05;;;11.40;99.90;;;;;;5058478;28;20127;-60
2023/12/25 03:16:19;;;;;;;18.00;3.30;;;11.30;99.90;;;;;;5037826;28;20036;-59
2023/12/25 03:18:44;;;;;;;19.83;2.53;;;11.20;99.90;;;;;;5036304;28;20129;-60
2023/12/25 03:21:10;;;;;;;14.45;2.90;;;11.20;99.90;;;;;;5021379;28;20030;-60
2023/12/25 03:23:36;;;;;;;15.05;3.03;;;11.20;99.90;;;;;;5037927;28;20602;-60
2023/12/25 03:26:02;;;;;;;13.70;2.63;;;11.20;99.90;;;;;;5041159;28;20525;-60
2023/12/25 03:28:29;;;;;;;12.40;2.17;;;11.10;99.90;;;;;;5035308;28;20166;-61
2023/12/25 03:30:55;;;;;;;15.80;3.20;;;11.10;99.90;;;;;;5018942;28;20052;-60
2023/12/25 03:33:21;;;;;;;13.68;3.28;;;11.10;99.90;;;;;;5035919;28;20582;-60
2023/12/25 03:35:46;;;;;;;13.40;3.03;;;11.10;99.90;;;;;;5029812;28;20044;-60
2023/12/25 03:38:13;;;;;;;11.93;2.53;;;11.20;99.90;;;;;;5035186;28;20037;-61
2023/12/25 03:40:39;;;;;;;16.77;3.60;;;11.20;99.90;;;;;;5024202;28;20059;-59
2023/12/25 03:43:05;;;;;;;15.65;2.70;;;11.20;99.90;;;;;;5055324;28;20044;-61
2023/12/25 03:45:31;;;;;;;14.45;2.70;;;11.30;99.90;;;;;;5034527;28;20122;-61
2023/12/25 03:47:56;;;;;;;13.18;2.70;;;11.30;99.90;;;;;;5037767;28;20147;-59
2023/12/25 03:50:22;;;;;;;13.95;3.40;;;11.30;99.90;;;;;;5056723;28;20032;-60
2023/12/25 03:52:48;;;;;;;15.48;3.08;;;11.30;99.90;;;;;;5005355;28;20090;-59
2023/12/25 03:55:14;;;;;;;13.77;2.85;;;11.30;99.90;;;;;;5018200;28;20036;-57
2023/12/25 03:57:39;;;;;;;14.13;2.85;;;11.30;99.90;;;;;;5035306;28;20052;-60
2023/12/25 04:00:06;;;;;;;13.60;2.70;;;11.30;99.90;;;;;;5038054;28;20110;-60
2023/12/25 04:02:32;;;;;;;14.73;3.42;;;11.30;99.90;;;;;;5052660;28;20404;-59
2023/12/25 04:04:57;;;;;;;17.70;3.05;;;11.30;99.90;;;;;;4998799;28;20039;-60
2023/12/25 04:07:23;;;;;;;13.90;2.50;;;11.30;99.90;;;;;;5048005;28;20044;-60
2023/12/25 04:09:49;;;;;;;17.42;4.30;;;11.20;99.90;;;;;;5022318;28;20041;-61
2023/12/25 04:12:15;;;;;;;19.42;3.17;;;11.20;99.90;;;;;;5036665;28;20052;-60
2023/12/25 04:14:40;;;;;;;15.48;2.92;;;11.30;99.90;;;;;;5036806;28;20185;-61
2023/12/25 04:17:06;;;;;;;15.68;3.08;;;11.20;99.90;;;;;;5001237;28;20798;-61
2023/12/25 04:19:32;;;;;;;16.35;3.28;;;11.20;99.90;;;;;;5023035;28;20329;-59
2023/12/25 04:21:58;;;;;;;17.67;4.03;;;11.20;99.90;;;;;;5036221;28;20549;-61
2023/12/25 04:24:24;;;;;;;18.63;2.97;;;11.20;99.90;;;;;;5036048;28;20124;-60
2023/12/25 04:26:49;;;;;;;17.30;3.00;;;11.20;99.90;;;;;;5038370;28;20075;-61
2023/12/25 04:29:15;;;;;;;16.77;2.90;;;11.20;99.90;;;;;;5036627;28;20044;-61
2023/12/25 04:31:41;;;;;;;18.58;3.10;;;11.20;99.90;;;;;;5039035;28;20263;-60
2023/12/25 04:34:07;;;;;;;15.25;2.65;;;11.20;99.90;;;;;;5039531;28;20055;-61
2023/12/25 04:36:32;;;;;;;18.30;2.75;;;11.10;99.90;;;;;;5033766;28;20044;-60
2023/12/25 04:38:58;;;;;;;15.77;3.25;;;11.10;99.90;;;;;;5049730;28;20124;-60
2023/12/25 04:41:24;;;;;;;14.98;3.00;;;11.10;99.90;;;;;;5017993;28;20054;-61
2023/12/25 04:43:50;;;;;;;18.95;3.53;;;11.10;99.90;;;;;;5036714;28;20394;-61
2023/12/25 04:46:17;;;;;;;9.98;2.72;;;11.00;99.90;;;;;;5019554;28;20040;-60
2023/12/25 04:48:43;;;;;;;16.75;3.10;;;11.00;99.90;;;;;;5038183;28;20055;-61
2023/12/25 04:51:08;;;;;;;16.60;2.92;;;11.10;99.90;;;;;;5033426;28;20036;-61
2023/12/25 04:53:36;;;;;;;14.23;2.50;;;11.10;99.90;;;;;;5018367;28;20536;-60
2023/12/25 04:56:02;;;;;;;16.77;3.35;;;11.00;99.90;;;;;;5038792;28;20105;-61
2023/12/25 04:58:28;;;;;;;13.75;3.08;;;11.10;99.90;;;;;;5019078;28;20074;-61
2023/12/25 05:00:54;;;;;;;17.42;2.95;;;11.10;99.90;;;;;;5020795;28;20040;-61
2023/12/25 05:03:21;;;;;;;15.48;3.63;;;11.00;99.90;;;;;;5036244;28;20064;-61
2023/12/25 05:05:48;;;;;;;19.25;2.88;;;11.10;99.90;;;;;;5035129;28;20123;-61
2023/12/25 05:08:13;;;;;;;14.82;3.20;;;11.10;99.90;;;;;;5023875;28;20064;-61
2023/12/25 05:10:39;;;;;;;16.15;3.03;;;11.00;99.90;;;;;;5052491;28;20036;-60
2023/12/25 05:13:05;;;;;;;17.80;3.15;;;11.00;99.90;;;;;;5035621;28;20041;-60
2023/12/25 05:15:30;;;;;;;13.20;3.10;;;11.00;99.90;;;;;;5020508;28;20058;-61
2023/12/25 05:17:56;;;;;;;20.73;3.08;;;11.00;99.90;;;;;;5020558;28;20627;-61
2023/12/25 05:20:23;;;;;;;14.82;3.10;;;11.00;99.90;;;;;;5038366;28;20052;-61
2023/12/25 05:22:49;;;;;;;16.92;4.03;;;11.00;99.90;;;;;;5037904;28;20110;-61
2023/12/25 05:25:14;;;;;;;14.75;2.90;;;10.90;99.90;;;;;;5053222;28;20544;-62
2023/12/25 05:27:40;;;;;;;15.80;3.33;;;10.90;99.90;;;;;;5051815;22;20040;-62
2023/12/25 05:30:06;;;;;;;22.35;3.55;;;10.90;99.90;;;;;;5041542;28;20480;-62
2023/12/25 05:32:32;;;;;;;15.82;3.22;;;10.90;99.90;;;;;;5041699;28;20040;-62
2023/12/25 05:34:58;;;;;;;18.50;3.08;;;10.80;99.90;;;;;;5026634;28;20044;-62
2023/12/25 05:37:24;;;;;;;17.45;2.88;;;10.80;99.90;;;;;;5042520;28;20040;-62
2023/12/25 05:39:49;;;;;;;18.63;3.17;;;10.80;99.90;;;;;;5042400;28;20504;-62
2023/12/25 05:42:15;;;;;;;21.80;3.40;;;10.80;99.90;;;;;;5041250;28;20435;-62
2023/12/25 05:44:41;;;;;;;16.25;3.47;;;10.80;99.90;;;;;;5042122;28;20500;-62
2023/12/25 05:47:06;;;;;;;20.55;3.60;;;10.80;99.90;;;;;;5063413;28;20055;-62
2023/12/25 05:49:32;;;;;;;21.50;3.90;;;10.80;99.90;;;;;;5043919;28;20498;-62
2023/12/25 05:51:58;;;;;;;16.73;3.13;;;10.70;99.90;;;;;;5023813;28;20469;-62
2023/12/25 05:54:23;;;;;;;23.63;4.07;;;10.70;99.90;;;;;;5043022;28;20040;-62
2023/12/25 05:56:49;;;;;;;14.73;3.03;;;10.70;99.90;;;;;;5037810;28;20044;-62
2023/12/25 05:59:15;;;;;;;17.08;3.35;;;10.70;99.90;;;;;;5037827;28;20040;-62
2023/12/25 06:01:41;;;;;;;22.10;3.83;;;10.60;99.90;;;;;;5040197;28;22293;-62
2023/12/25 06:04:06;;;;;;;15.88;3.42;;;10.60;99.90;;;;;;5024795;28;20459;-62
2023/12/25 06:06:32;;;;;;;18.67;3.10;;;10.60;99.90;;;;;;5023463;28;20164;-62
2023/12/25 06:08:58;;;;;;;20.42;3.45;;;10.60;99.90;;;;;;5023219;28;20040;-62
2023/12/25 06:11:23;;;;;;;20.42;4.05;;;10.60;99.90;;;;;;5036505;28;20061;-62
2023/12/25 06:13:49;;;;;;;19.88;2.90;;;10.60;99.90;;;;;;5036879;28;20055;-62
2023/12/25 06:16:15;;;;;;;13.27;2.70;;;10.60;99.90;;;;;;5040458;28;20049;-62
2023/12/25 06:18:41;;;;;;;18.70;2.92;;;10.60;99.90;;;;;;5037934;28;20040;-62
2023/12/25 06:21:07;;;;;;;16.85;2.97;;;10.60;99.90;;;;;;5037474;28;20051;-62
2023/12/25 06:23:32;;;;;;;18.75;3.08;;;10.60;99.90;;;;;;5035446;28;20472;-62
2023/12/25 06:25:59;;;;;;;19.73;3.95;;;10.60;99.90;;;;;;5025199;28;20078;-62
2023/12/25 06:28:25;;;;;;;24.55;4.05;;;10.60;99.90;;;;;;5021290;28;20037;-62
2023/12/25 06:30:51;;;;;;;17.73;3.38;;;10.60;99.90;;;;;;5036577;28;20064;-62
2023/12/25 06:33:19;;;;;;;16.45;3.60;;;10.60;99.90;;;;;;5020263;28;20414;-62
2023/12/25 06:35:45;;;;;;;18.10;3.97;;;10.60;99.90;;;;;;5042619;28;20105;-62
2023/12/25 06:38:12;;;;;;;17.10;3.65;;;10.60;99.90;;;;;;5040700;28;20496;-62
2023/12/25 06:40:38;;;;;;;24.63;4.53;;;10.50;99.90;;;;;;5032614;28;20045;-62
2023/12/25 06:43:03;;;;;;;18.02;3.50;;;10.60;99.90;;;;;;5015263;28;20052;-62
2023/12/25 06:45:29;;;;;;;16.15;2.78;;;10.60;99.90;;;;;;5050808;28;20040;-62
2023/12/25 06:47:55;;;;;;;18.63;3.40;;;10.60;99.90;;;;;;5038269;28;21685;-62
2023/12/25 06:50:21;;;;;;;23.38;4.38;;;10.50;99.90;;;;;;5036314;28;20827;-62
2023/12/25 06:52:46;;;;;;;17.85;4.43;;;10.50;99.90;;;;;;5040080;28;20393;-62
2023/12/25 06:55:12;;;;;;;20.70;2.78;;;10.50;99.90;;;;;;5046128;28;20044;-62
2023/12/25 06:57:38;;;;;;;19.40;3.28;;;10.50;99.90;;;;;;5032749;28;20139;-62
2023/12/25 07:00:05;;;;;;;20.08;3.35;;;10.50;99.90;;;;;;5042256;28;20616;-62
2023/12/25 07:02:31;;;;;;;19.90;3.67;;;10.50;99.90;;;;;;5038071;28;20048;-62
2023/12/25 07:04:57;;;;;;;18.63;3.40;;;10.50;99.90;;;;;;5034407;28;20108;-62
2023/12/25 07:07:23;;;;;;;22.25;3.22;;;10.50;99.90;;;;;;5041717;28;20032;-62
2023/12/25 07:09:48;;;;;;;15.65;3.15;;;10.40;99.90;;;;;;5027076;28;20032;-62
2023/12/25 07:12:14;;;;;;;17.95;3.30;;;10.40;99.90;;;;;;5055114;28;20040;-62
2023/12/25 07:14:42;;;;;;;16.73;3.22;;;10.50;99.90;;;;;;5041382;28;20491;-62
2023/12/25 07:17:08;;;;;;;19.58;3.75;;;10.40;99.90;;;;;;5039362;28;20224;-62
2023/12/25 07:19:34;;;;;;;14.85;2.78;;;10.50;99.90;;;;;;5056495;28;20680;-62
2023/12/25 07:22:01;;;;;;;12.48;3.00;;;10.40;99.90;;;;;;5045529;28;20485;-62
2023/12/25 07:24:27;;;;;;;15.48;2.63;;;10.40;99.90;;;;;;5032595;28;20052;-62
2023/12/25 07:26:53;;;;;;;16.55;2.95;;;10.40;99.90;;;;;;5048797;28;20454;-62
2023/12/25 07:29:20;;;;;;;15.43;4.68;;;10.40;99.90;;;;;;5035088;28;20037;-62
2023/12/25 07:31:45;;;;;;;16.60;2.63;;;10.40;99.90;;;;;;5033104;28;20416;-62
2023/12/25 07:34:11;;;;;;;23.08;3.30;;;10.40;99.90;;;;;;5052989;28;20041;-62
2023/12/25 07:36:37;;;;;;;15.00;2.92;;;10.40;99.90;;;;;;5047862;28;20083;-62
2023/12/25 07:39:05;;;;;;;14.70;2.45;;;10.40;99.90;;;;;;5046847;28;20048;-62
2023/12/25 07:41:31;;;;;;;18.35;2.75;;;10.40;99.90;;;;;;5050559;28;20398;-62
2023/12/25 07:44:00;;;;;;;13.70;3.13;;;10.40;99.90;;;;;;5046256;28;20063;-62
2023/12/25 07:46:26;;;;;;;17.65;3.58;;;10.40;99.90;;;;;;5051399;28;20040;-62
2023/12/25 07:48:52;;;;;;;18.35;3.28;;;10.40;99.90;;;;;;5067190;28;20044;-62
2023/12/25 07:51:18;;;;;;;20.70;3.83;;;10.50;99.90;;;;;;5050119;28;20469;-62
2023/12/25 07:53:44;;;;;;;15.43;2.67;;;10.50;99.90;;;;;;5048996;28;20068;-62
2023/12/25 07:56:10;;;;;;;14.50;3.05;;;10.50;99.90;;;;;;5049719;28;20448;-62
2023/12/25 07:58:36;;;;;;;18.48;3.65;;;10.50;99.90;;;;;;5061386;28;20103;-62
2023/12/25 08:01:02;;;;;;;14.55;2.63;;;10.50;99.90;;;;;;5045990;28;20099;-62
2023/12/25 08:03:28;;;;;;;23.40;3.85;;;10.50;99.90;;;;;;5048433;28;20125;-62
2023/12/25 08:05:53;;;;;;;15.15;2.58;;;10.50;99.90;;;;;;5048478;28;20119;-62
2023/12/25 08:08:19;;;;;;;17.10;3.75;;;10.40;99.90;;;;;;5033778;28;20050;-62
2023/12/25 08:10:45;;;;;;;14.75;2.10;;;10.30;99.90;;;;;;5048767;28;20440;-62
2023/12/25 08:13:11;;;;;;;7.47;1.75;;;10.20;99.90;;;;;;5050541;28;20112;-62
2023/12/25 08:15:37;;;;;;;8.55;1.73;;;10.10;99.90;;;;;;5051481;28;20140;-62
2023/12/25 08:18:03;;;;;;;8.25;2.10;;;10.10;99.90;;;;;;5047757;28;20063;-62
2023/12/25 08:20:28;;;;;;;8.85;2.35;;;10.10;99.90;;;;;;5050316;28;20120;-62
2023/12/25 08:22:54;;;;;;;17.95;2.60;;;10.10;99.90;;;;;;5051677;28;20139;-62
2023/12/25 08:25:20;;;;;;;11.27;1.85;;;10.00;99.90;;;;;;5047891;28;20045;-62
2023/12/25 08:27:46;;;;;;;12.35;1.95;;;10.00;99.90;;;;;;5049093;28;20308;-62
2023/12/25 08:30:12;;;;;;;8.32;1.75;;;10.00;99.90;;;;;;5046966;28;20029;-62
2023/12/25 08:32:37;;;;;;;10.80;2.40;;;10.00;99.90;;;;;;5050439;28;20666;-62
2023/12/25 08:35:03;;;;;;;9.43;1.63;;;9.90;99.90;;;;;;5065383;28;20036;-62
2023/12/25 08:37:29;;;;;;;7.43;1.50;;;9.90;99.90;;;;;;5032939;28;20033;-62
2023/12/25 08:39:55;;;;;;;8.18;1.45;;;9.90;99.90;;;;;;5028537;28;20102;-62
2023/12/25 08:42:21;;;;;;;13.77;3.22;;;9.90;99.90;;;;;;5049145;28;20035;-62
2023/12/25 08:44:47;;;;;;;14.88;2.83;;;9.80;99.90;;;;;;5049157;28;20413;-62
2023/12/25 08:47:14;;;;;;;11.60;2.15;;;9.80;99.90;;;;;;5047692;28;21290;-62
2023/12/25 08:49:40;;;;;;;8.45;2.25;;;9.70;99.90;;;;;;5048508;28;20036;-62
2023/12/25 08:52:06;;;;;;;8.77;2.33;;;9.70;99.90;;;;;;5044314;28;20494;-62
2023/12/25 08:54:32;;;;;;;13.40;2.72;;;9.70;99.90;;;;;;5033065;28;20527;-62
2023/12/25 08:56:59;;;;;;;13.63;2.42;;;9.70;99.90;;;;;;5049839;28;20048;-62
2023/12/25 08:59:25;;;;;;;13.60;2.83;;;9.70;99.90;;;;;;5033116;28;20079;-62
2023/12/25 09:01:51;;;;;;;19.13;3.22;;;9.70;99.90;;;;;;5035409;28;20101;-62
2023/12/25 09:04:17;;;;;;;16.77;2.28;;;9.70;99.90;;;;;;5047205;28;20098;-62
2023/12/25 09:06:42;;;;;;;19.50;3.38;;;9.70;99.90;;;;;;5049472;28;20459;-62
2023/12/25 09:09:11;;;;;;;8.27;2.53;;;9.70;99.90;;;;;;5048776;28;20078;-62
2023/12/25 09:11:36;;;;;;;12.63;2.80;;;9.60;99.90;;;;;;5046118;28;20048;-62
2023/12/25 09:14:03;;;;;;;17.02;3.05;;;9.70;99.90;;;;;;5030869;28;20082;-62
2023/12/25 09:16:29;;;;;;;14.98;2.63;;;9.70;99.90;;;;;;5033581;28;20261;-62
2023/12/25 09:18:55;;;;;;;13.88;2.55;;;9.70;99.90;;;;;;5069075;28;20032;-62
2023/12/25 09:21:21;;;;;;;10.63;2.50;;;9.70;99.90;;;;;;5047651;28;20051;-62
2023/12/25 09:23:48;;;;;;;12.50;2.30;;;9.70;99.90;;;;;;5032032;28;20047;-62
2023/12/25 09:26:19;;;;;;;12.75;2.53;;;9.80;99.90;;;;;;5035342;28;20046;-62
2023/12/25 09:28:44;;;;;;;12.27;2.67;;;9.70;99.90;;;;;;5047319;28;20123;-62
2023/12/25 09:31:11;;;;;;;9.35;2.30;;;9.70;99.90;;;;;;5031331;28;20181;-62
2023/12/25 09:33:37;;;;;;;12.43;2.28;;;9.70;99.90;;;;;;5050221;28;20468;-62
2023/12/25 09:36:03;;;;;;;17.15;2.53;;;9.80;99.90;;;;;;5049431;28;20067;-62
2023/12/25 09:38:28;;;;;;;14.95;2.78;;;9.80;99.90;;;;;;5046154;28;20042;-62
2023/12/25 09:40:55;;;;;;;12.85;2.75;;;9.80;99.90;;;;;;5048320;28;20040;-62
2023/12/25 09:43:22;;;;;;;13.82;2.33;;;9.80;99.90;;;;;;5049479;28;20090;-62
2023/12/25 09:45:49;;;;;;;13.98;2.75;;;9.90;99.90;;;;;;5047405;28;20131;-62
2023/12/25 09:48:19;;;;;;;14.82;2.55;;;9.90;99.90;;;;;;5048572;28;20060;-62
2023/12/25 09:50:45;;;;;;;17.13;2.45;;;9.90;99.90;;;;;;5052555;28;20120;-62
2023/12/25 09:53:11;;;;;;;15.95;4.15;;;9.90;99.90;;;;;;5046613;28;20040;-62
2023/12/25 09:55:37;;;;;;;13.05;3.00;;;10.00;99.90;;;;;;5029968;28;20056;-62
2023/12/25 09:58:06;;;;;;;12.45;2.47;;;10.00;99.90;;;;;;5045895;28;20742;-62
2023/12/25 10:00:32;;;;;;;14.40;2.35;;;10.00;99.90;;;;;;5032593;28;20040;-62
2023/12/25 10:02:59;;;;;;;19.77;4.13;;;10.00;99.90;;;;;;5048044;28;20508;-62
2023/12/25 10:05:26;;;;;;;13.38;2.78;;;10.00;99.90;;;;;;5032728;28;20122;-62
2023/12/25 10:07:52;;;;;;;20.80;3.50;;;10.00;99.90;;;;;;5032414;28;20545;-62
2023/12/25 10:10:18;;;;;;;15.85;2.60;;;10.00;99.90;;;;;;5064503;28;20024;-62
2023/12/25 10:12:44;;;;;;;13.02;2.72;;;10.00;99.90;;;;;;5044816;28;20540;-62
2023/12/25 10:15:12;;;;;;;13.75;2.53;;;10.00;99.90;;;;;;5033412;28;20036;-62
2023/12/25 10:17:38;;;;;;;21.20;3.28;;;10.00;99.90;;;;;;5045325;28;20543;-62
2023/12/25 10:20:06;;;;;;;15.48;3.20;;;10.00;99.90;;;;;;5047445;28;20032;-62
2023/12/25 10:22:38;;;;;;;23.13;4.10;;;10.10;99.90;;;;;;5043820;28;20041;-62
2023/12/25 10:25:10;;;;;;;13.77;2.72;;;10.10;99.90;;;;;;5046283;28;20036;-62
2023/12/25 10:27:40;;;;;;;13.95;3.10;;;10.10;99.90;;;;;;5050375;28;20532;-62
2023/12/25 10:30:17;;;;;;;20.73;4.85;;;10.10;99.90;;;;;;5050789;28;20047;-62
2023/12/25 10:32:43;;;;;;;14.88;3.00;;;10.10;99.90;;;;;;5035606;28;20112;-62
2023/12/25 10:35:13;;;;;;;18.15;4.40;;;10.20;99.90;;;;;;5052099;28;20135;-62
2023/12/25 10:37:42;;;;;;;21.75;3.90;;;10.10;99.90;;;;;;5052095;28;20511;-62
2023/12/25 10:40:22;;;;;;;17.83;3.20;;;10.20;99.90;;;;;;5044677;28;20504;-62
2023/12/25 10:42:50;;;;;;;18.17;3.83;;;10.20;99.90;;;;;;5050264;28;20029;-62
2023/12/25 10:45:22;;;;;;;17.10;3.22;;;10.30;99.90;;;;;;5053260;28;20052;-62
2023/12/25 10:48:00;;;;;;;20.00;3.70;;;10.30;99.90;;;;;;5030406;28;20241;-62
2023/12/25 10:50:30;;;;;;;26.30;6.70;;;10.30;99.90;;;;;;5048495;28;20036;-62
2023/12/25 10:53:00;;;;;;;13.57;3.58;;;10.30;99.90;;;;;;5049881;28;20330;-62
2023/12/25 10:55:40;;;;;;;25.70;4.70;;;10.40;99.90;;;;;;5053262;28;20044;-62
2023/12/25 10:58:14;;;;;;;15.52;3.65;;;10.40;99.90;;;;;;5040052;28;20044;-62
2023/12/25 11:00:46;;;;;;;17.98;3.03;;;10.50;99.90;;;;;;5057446;28;20048;-62
2023/12/25 11:03:15;;;;;;;20.23;3.70;;;10.50;99.90;;;;;;5050254;28;20493;-62
2023/12/25 11:05:41;;;;;;;21.23;3.83;;;10.50;99.90;;;;;;5050599;28;20130;-62
2023/12/25 11:08:08;;;;;;;24.50;4.88;;;10.50;99.90;;;;;;5047855;28;20072;-62
2023/12/25 11:10:35;;;;;;;21.50;4.00;;;10.50;99.90;;;;;;5049950;28;20052;-61
2023/12/25 11:13:02;;;;;;;17.88;4.30;;;10.60;99.90;;;;;;5037947;28;20055;-62
2023/12/25 11:15:28;;;;;;;24.67;3.88;;;10.60;99.90;;;;;;5032455;28;20308;-62
2023/12/25 11:17:54;;;;;;;27.83;4.35;;;10.60;99.90;;;;;;5052196;28;20055;-62
2023/12/25 11:20:20;;;;;;;18.00;3.17;;;10.60;99.90;;;;;;5035995;28;20535;-62
2023/12/25 11:22:46;;;;;;;26.60;4.57;;;10.50;99.90;;;;;;5016128;28;20040;-61
2023/12/25 11:25:18;;;;;;;23.15;4.47;;;10.50;99.90;;;;;;5020730;28;20044;-62
2023/12/25 11:27:54;;;;;;;26.35;5.50;;;10.50;99.90;;;;;;5055891;28;20692;-62
2023/12/25 11:30:24;;;;;;;20.50;3.90;;;10.50;99.90;;;;;;5034009;28;20135;-62
2023/12/25 11:32:50;;;;;;;18.85;4.00;;;10.50;99.90;;;;;;5021454;28;20513;-62
2023/12/25 11:35:27;;;;;;;25.70;6.10;;;10.50;99.90;;;;;;5037541;28;20674;-62
2023/12/25 11:38:23;;;;;;;16.67;3.97;;;10.60;99.90;;;;;;5036014;28;20040;-62
2023/12/25 11:40:50;;;;;;;18.45;4.25;;;10.60;99.90;;;;;;5037146;28;20048;-62
2023/12/25 11:43:20;;;;;;;20.75;5.35;;;10.60;99.90;;;;;;5037877;28;20649;-62
2023/12/25 11:45:50;;;;;;;17.88;4.30;;;10.60;99.90;;;;;;5031357;28;20051;-62
2023/12/25 11:48:16;;;;;;;21.42;3.88;;;10.60;99.90;;;;;;5037157;28;20574;-62
2023/12/25 11:50:45;;;;;;;18.75;3.95;;;10.60;99.90;;;;;;5035130;28;20044;-62
2023/12/25 11:53:34;;;;;;;22.92;4.20;;;10.60;99.90;;;;;;5017248;28;20094;-62
2023/12/25 11:56:00;;;;;;;21.20;3.70;;;10.60;99.90;;;;;;5037641;28;20152;-62
2023/12/25 11:58:26;;;;;;;17.35;3.78;;;10.60;99.90;;;;;;5035887;28;20333;-62
2023/12/25 12:00:52;;;;;;;19.95;3.75;;;10.60;99.90;;;;;;5038634;28;20044;-62
2023/12/25 12:03:17;;;;;;;21.65;3.50;;;10.60;99.90;;;;;;5039852;28;20045;-62
2023/12/25 12:05:45;;;;;;;19.65;3.97;;;10.60;99.90;;;;;;5046027;28;20064;-62
2023/12/25 12:08:11;;;;;;;20.77;4.40;;;10.60;99.90;;;;;;5032043;28;20045;-62
2023/12/25 12:10:36;;;;;;;21.30;4.20;;;10.60;99.90;;;;;;5050080;28;20098;-62
2023/12/25 12:13:02;;;;;;;20.90;4.18;;;10.60;99.90;;;;;;5039562;28;20036;-62
2023/12/25 12:15:28;;;;;;;22.60;4.25;;;10.60;99.90;;;;;;5047308;28;20066;-62
2023/12/25 12:17:53;;;;;;;23.73;4.50;;;10.60;99.90;;;;;;5033070;28;20052;-62
2023/12/25 12:20:20;;;;;;;21.33;3.90;;;10.70;99.90;;;;;;5036896;28;20118;-62
2023/12/25 12:22:45;;;;;;;20.08;3.85;;;10.70;99.90;;;;;;5034201;28;20082;-62
2023/12/25 12:25:15;;;;;;;18.42;4.18;;;10.60;99.90;;;;;;5035410;28;20371;-62
2023/12/25 12:27:41;;;;;;;13.52;3.40;;;10.70;99.90;;;;;;5023835;28;20394;-62
2023/12/25 12:30:08;;;;;;;24.45;4.60;;;10.60;99.90;;;;;;5033254;28;20047;-62
2023/12/25 12:32:37;;;;;;;20.80;3.83;;;10.70;99.90;;;;;;5036528;28;20044;-62
2023/12/25 12:35:04;;;;;;;18.52;3.30;;;10.60;99.90;;;;;;5038270;28;20048;-62